Time;durP1;ratioP1;P1;durP2;ratioP2;P2;SDS_P1;SDS_P2;PMS_P1;PMS_P2;Temp;Humidity;BMP_temperature;BMP_pressure;BME280_temperature;BME280_humidity;BME280_pressure;Samples;Min_cycle;Max_cycle;Signal;HPM_P1;HPM_P2
2022/09/23 00:00:45;;;;;;;8.90;5.57;;;9.90;86.00;;;;;;5005540;28;20185;-71
2022/09/23 00:03:11;;;;;;;9.73;5.90;;;9.90;85.90;;;;;;5007310;28;20260;-70
2022/09/23 00:05:37;;;;;;;7.80;5.00;;;9.90;86.20;;;;;;5006355;28;20595;-71
2022/09/23 00:08:04;;;;;;;9.87;5.63;;;9.80;86.20;;;;;;5005740;28;20445;-69
2022/09/23 00:10:30;;;;;;;5.50;4.60;;;9.80;86.30;;;;;;5003621;28;20421;-70
2022/09/23 00:12:57;;;;;;;7.13;5.30;;;9.80;86.30;;;;;;5002631;28;20466;-70
2022/09/23 00:15:24;;;;;;;7.30;5.17;;;9.80;86.30;;;;;;5003769;28;20508;-70
2022/09/23 00:17:50;;;;;;;12.27;7.00;;;9.70;86.30;;;;;;5003168;28;20425;-70
2022/09/23 00:20:16;;;;;;;8.00;5.90;;;9.70;86.50;;;;;;5004839;28;20455;-69
2022/09/23 00:22:43;;;;;;;11.83;6.83;;;9.60;86.80;;;;;;5005714;28;20926;-69
2022/09/23 00:25:09;;;;;;;10.13;6.70;;;9.50;87.00;;;;;;5003277;28;20447;-70
2022/09/23 00:27:36;;;;;;;11.80;7.00;;;9.60;87.10;;;;;;5006056;28;21206;-71
2022/09/23 00:30:03;;;;;;;11.07;7.40;;;9.60;87.30;;;;;;5009296;28;20425;-70
2022/09/23 00:32:29;;;;;;;10.70;6.90;;;9.60;87.30;;;;;;5008976;28;20477;-70
2022/09/23 00:34:54;;;;;;;12.20;7.17;;;9.60;87.10;;;;;;5002239;28;20845;-70
2022/09/23 00:37:20;;;;;;;10.90;7.50;;;9.60;87.10;;;;;;5005536;28;20504;-70
2022/09/23 00:39:46;;;;;;;9.00;5.73;;;9.60;87.30;;;;;;5007524;28;20183;-70
2022/09/23 00:42:15;;;;;;;10.80;7.00;;;9.50;87.30;;;;;;5005685;28;20510;-70
2022/09/23 00:44:55;;;;;;;10.60;6.40;;;9.50;87.30;;;;;;4993141;28;20201;-68
2022/09/23 00:47:44;;;;;;;12.33;7.20;;;9.50;87.40;;;;;;5004283;28;20478;-69
2022/09/23 00:50:24;;;;;;;8.00;5.60;;;9.40;87.60;;;;;;5003056;28;20955;-70
2022/09/23 00:52:53;;;;;;;9.77;6.07;;;9.40;87.60;;;;;;5007500;28;20491;-70
2022/09/23 00:55:25;;;;;;;8.13;6.20;;;9.50;87.60;;;;;;5004418;28;20507;-69
2022/09/23 00:57:55;;;;;;;9.20;6.60;;;9.50;87.40;;;;;;5008655;28;20883;-70
2022/09/23 01:00:21;;;;;;;11.57;5.90;;;9.50;87.30;;;;;;5006608;28;20508;-70
2022/09/23 01:02:47;;;;;;;8.27;6.13;;;9.40;87.30;;;;;;5010054;28;20456;-69
2022/09/23 01:05:13;;;;;;;10.27;7.00;;;9.40;87.60;;;;;;5011696;28;20448;-70
2022/09/23 01:07:39;;;;;;;10.07;6.87;;;9.40;87.60;;;;;;5010961;28;20185;-69
2022/09/23 01:10:06;;;;;;;8.50;5.90;;;9.40;87.60;;;;;;5007737;28;20464;-70
2022/09/23 01:13:18;;;;;;;8.67;5.77;;;9.30;87.60;;;;;;5010319;28;20217;-69
2022/09/23 01:15:52;;;;;;;12.80;7.60;;;9.40;87.60;;;;;;5007167;28;20462;-69
2022/09/23 01:18:33;;;;;;;7.10;5.40;;;9.30;87.60;;;;;;5010885;28;20431;-69
2022/09/23 01:21:19;;;;;;;8.83;6.37;;;9.20;87.80;;;;;;5004605;28;20464;-69
2022/09/23 01:24:14;;;;;;;8.60;5.67;;;9.20;88.00;;;;;;4990788;28;20433;-69
2022/09/23 01:26:55;;;;;;;9.40;6.10;;;9.20;87.80;;;;;;5007299;28;20459;-70
2022/09/23 01:30:05;;;;;;;9.93;6.30;;;9.30;87.70;;;;;;5002521;28;20456;-69
2022/09/23 01:32:41;;;;;;;6.70;5.10;;;9.30;87.70;;;;;;4982218;28;20969;-69
2022/09/23 01:35:30;;;;;;;10.60;5.67;;;9.20;87.70;;;;;;5002542;28;20425;-70
2022/09/23 01:38:00;;;;;;;7.63;5.30;;;9.20;87.70;;;;;;5010722;28;20457;-69
2022/09/23 01:40:50;;;;;;;8.00;5.13;;;9.10;87.70;;;;;;5006381;28;20421;-69
2022/09/23 01:43:43;;;;;;;5.80;4.30;;;9.20;87.80;;;;;;5007137;28;20460;-70
2022/09/23 01:46:16;;;;;;;7.30;4.80;;;9.20;87.70;;;;;;5003758;28;20960;-70
2022/09/23 01:48:58;;;;;;;6.37;4.13;;;9.10;87.60;;;;;;5002215;28;20429;-70
2022/09/23 01:51:28;;;;;;;7.83;5.10;;;9.10;87.70;;;;;;5006570;28;20480;-70
2022/09/23 01:54:23;;;;;;;7.13;5.17;;;9.00;87.70;;;;;;5009432;28;20487;-70
2022/09/23 01:57:12;;;;;;;6.30;4.77;;;9.00;88.00;;;;;;5002717;28;20453;-69
2022/09/23 01:59:44;;;;;;;6.40;4.60;;;8.90;88.00;;;;;;5002921;28;20448;-69
2022/09/23 02:02:32;;;;;;;7.77;5.47;;;8.80;88.60;;;;;;5010666;28;20421;-70
2022/09/23 02:05:08;;;;;;;10.97;6.00;;;8.80;88.90;;;;;;4999298;28;20433;-70
2022/09/23 02:07:45;;;;;;;8.53;5.73;;;8.80;89.00;;;;;;5003979;28;20473;-70
2022/09/23 02:10:14;;;;;;;7.20;5.27;;;8.80;89.20;;;;;;4988018;28;20993;-70
2022/09/23 02:12:44;;;;;;;7.00;5.00;;;8.80;89.20;;;;;;5006435;28;20470;-70
2022/09/23 02:15:17;;;;;;;10.37;5.70;;;8.80;89.00;;;;;;5008567;28;20432;-69
2022/09/23 02:17:52;;;;;;;9.60;6.10;;;8.80;89.20;;;;;;5002166;28;20961;-68
2022/09/23 02:20:23;;;;;;;7.93;5.20;;;8.80;89.20;;;;;;5009744;28;20447;-70
2022/09/23 02:23:00;;;;;;;7.90;5.30;;;8.80;89.20;;;;;;4988198;28;20800;-70
2022/09/23 02:25:36;;;;;;;7.70;5.50;;;8.80;89.30;;;;;;5003601;28;20529;-68
2022/09/23 02:28:22;;;;;;;8.73;5.80;;;8.80;89.50;;;;;;5006944;28;20778;-70
2022/09/23 02:30:56;;;;;;;8.47;5.90;;;8.80;89.30;;;;;;5009447;28;20760;-68
2022/09/23 02:33:41;;;;;;;8.70;6.10;;;8.80;89.30;;;;;;5008755;28;20468;-69
2022/09/23 02:36:14;;;;;;;9.13;5.43;;;8.70;89.30;;;;;;5003731;28;20453;-70
2022/09/23 02:38:45;;;;;;;9.30;5.90;;;8.70;89.50;;;;;;4999783;28;20409;-71
2022/09/23 02:41:15;;;;;;;8.10;5.73;;;8.70;89.50;;;;;;5000741;28;20448;-69
2022/09/23 02:43:47;;;;;;;11.43;6.00;;;8.60;89.50;;;;;;5008463;28;20448;-70
2022/09/23 02:46:13;;;;;;;10.40;6.57;;;8.60;89.60;;;;;;5001075;28;20487;-70
2022/09/23 02:49:10;;;;;;;10.77;5.97;;;8.60;89.70;;;;;;5001778;28;20417;-69
2022/09/23 02:51:37;;;;;;;8.40;6.37;;;8.60;89.70;;;;;;4997346;28;20507;-68
2022/09/23 02:54:05;;;;;;;8.77;5.43;;;8.50;89.50;;;;;;5009045;28;20431;-69
2022/09/23 02:56:32;;;;;;;9.33;6.30;;;8.50;89.30;;;;;;5003050;28;20899;-70
2022/09/23 02:58:58;;;;;;;8.83;6.10;;;8.50;89.30;;;;;;5002243;28;20494;-70
2022/09/23 03:01:30;;;;;;;9.50;6.30;;;8.50;89.30;;;;;;5009955;28;20429;-70
2022/09/23 03:04:14;;;;;;;9.07;5.80;;;8.50;89.60;;;;;;5004495;28;20495;-69
2022/09/23 03:06:59;;;;;;;6.73;5.43;;;8.60;89.60;;;;;;4999768;28;20497;-69
2022/09/23 03:09:32;;;;;;;6.40;4.73;;;8.60;89.60;;;;;;5002382;28;20514;-69
2022/09/23 03:12:15;;;;;;;8.73;5.33;;;8.60;89.60;;;;;;5006116;28;20465;-69
2022/09/23 03:14:56;;;;;;;9.00;5.60;;;8.60;89.50;;;;;;4986523;28;20431;-70
2022/09/23 03:17:45;;;;;;;6.70;5.40;;;8.60;89.70;;;;;;5001469;28;20829;-70
2022/09/23 03:20:27;;;;;;;8.40;5.53;;;8.50;89.70;;;;;;5005073;28;20429;-70
2022/09/23 03:22:59;;;;;;;6.27;5.47;;;8.50;90.00;;;;;;5004981;28;20887;-69
2022/09/23 03:25:28;;;;;;;8.93;6.10;;;8.50;90.00;;;;;;5006038;28;20433;-69
2022/09/23 03:27:56;;;;;;;8.17;5.80;;;8.50;90.00;;;;;;4997522;28;20546;-70
2022/09/23 03:30:23;;;;;;;8.37;5.80;;;8.50;89.90;;;;;;5008131;28;20934;-70
2022/09/23 03:32:50;;;;;;;11.00;6.20;;;8.50;89.90;;;;;;5000370;28;20546;-69
2022/09/23 03:35:16;;;;;;;8.70;6.10;;;8.40;89.90;;;;;;5002995;28;20952;-70
2022/09/23 03:37:50;;;;;;;10.67;6.20;;;8.40;90.00;;;;;;5006685;28;20440;-70
2022/09/23 03:40:24;;;;;;;10.20;5.80;;;8.40;90.10;;;;;;4998809;28;20448;-71
2022/09/23 03:42:52;;;;;;;7.70;6.03;;;8.30;90.40;;;;;;5007297;28;20424;-69
2022/09/23 03:45:22;;;;;;;9.20;5.73;;;8.40;90.40;;;;;;5001268;28;20422;-70
2022/09/23 03:47:48;;;;;;;8.50;6.00;;;8.30;90.40;;;;;;4990542;28;20493;-71
2022/09/23 03:50:16;;;;;;;8.57;6.50;;;8.30;90.50;;;;;;4994297;28;20418;-69
2022/09/23 03:52:42;;;;;;;7.27;5.97;;;8.30;90.50;;;;;;5004777;28;20352;-71
2022/09/23 03:55:09;;;;;;;7.60;5.53;;;8.30;90.70;;;;;;5002915;28;20413;-70
2022/09/23 03:57:35;;;;;;;13.13;6.53;;;8.30;90.60;;;;;;5001748;28;20437;-69
2022/09/23 04:00:03;;;;;;;9.93;6.10;;;8.20;90.70;;;;;;5005764;28;20417;-70
2022/09/23 04:02:28;;;;;;;8.53;6.60;;;8.20;90.80;;;;;;5006090;28;20436;-70
2022/09/23 04:04:54;;;;;;;13.17;6.70;;;8.20;90.90;;;;;;4997652;28;20428;-71
2022/09/23 04:07:20;;;;;;;9.20;5.83;;;8.20;91.00;;;;;;5004119;28;20296;-70
2022/09/23 04:09:46;;;;;;;8.70;6.00;;;8.20;91.10;;;;;;4999625;28;20515;-71
2022/09/23 04:12:13;;;;;;;11.27;5.60;;;8.20;91.10;;;;;;5004913;28;20208;-69
2022/09/23 04:14:39;;;;;;;8.13;6.13;;;8.10;91.10;;;;;;5006441;28;20182;-70
2022/09/23 04:17:05;;;;;;;7.97;5.33;;;8.10;91.10;;;;;;5002856;28;20564;-70
2022/09/23 04:19:30;;;;;;;8.80;5.93;;;8.10;91.20;;;;;;5008401;28;20684;-71
2022/09/23 04:21:56;;;;;;;8.00;5.93;;;8.10;91.30;;;;;;5006780;28;20197;-69
2022/09/23 04:24:21;;;;;;;8.27;6.03;;;8.10;91.30;;;;;;5008532;28;20193;-70
2022/09/23 04:26:54;;;;;;;9.70;5.70;;;8.00;91.30;;;;;;5000022;28;20281;-70
2022/09/23 04:29:20;;;;;;;11.50;6.50;;;8.00;91.50;;;;;;5007839;28;20652;-70
2022/09/23 04:31:46;;;;;;;9.50;6.40;;;8.00;91.60;;;;;;5012270;28;20537;-69
2022/09/23 04:34:12;;;;;;;9.63;5.30;;;8.00;91.60;;;;;;5014771;28;20445;-70
2022/09/23 04:36:37;;;;;;;10.47;6.50;;;7.90;91.60;;;;;;5012696;28;20475;-69
2022/09/23 04:39:03;;;;;;;10.97;6.00;;;8.00;91.70;;;;;;5017432;28;20432;-70
2022/09/23 04:41:29;;;;;;;9.17;5.87;;;8.00;91.60;;;;;;5015260;28;20248;-70
2022/09/23 04:43:56;;;;;;;8.30;5.97;;;7.90;91.70;;;;;;5021011;28;20538;-70
2022/09/23 04:46:22;;;;;;;7.80;5.73;;;7.80;91.90;;;;;;5005298;28;20198;-70
2022/09/23 04:48:48;;;;;;;8.70;6.07;;;7.80;91.90;;;;;;5007012;28;20926;-72
2022/09/23 04:51:19;;;;;;;9.77;7.10;;;7.90;92.10;;;;;;5006317;28;20425;-75
2022/09/23 04:53:47;;;;;;;14.17;8.47;;;7.80;92.00;;;;;;5005909;28;20520;-72
2022/09/23 04:56:21;;;;;;;10.50;7.47;;;7.80;91.80;;;;;;5011523;28;20972;-73
2022/09/23 04:58:48;;;;;;;10.10;7.93;;;7.80;91.60;;;;;;5019158;28;20744;-74
2022/09/23 05:01:23;;;;;;;15.33;8.07;;;7.80;91.40;;;;;;5016054;28;20456;-73
2022/09/23 05:03:50;;;;;;;9.87;7.20;;;7.80;91.30;;;;;;5013854;28;20509;-73
2022/09/23 05:06:16;;;;;;;12.87;7.77;;;7.90;91.20;;;;;;5015456;28;20460;-74
2022/09/23 05:08:53;;;;;;;11.80;7.50;;;8.00;90.90;;;;;;5015704;28;20876;-73
2022/09/23 05:11:19;;;;;;;12.67;9.03;;;7.90;91.00;;;;;;5015568;28;20191;-70
2022/09/23 05:13:51;;;;;;;11.60;7.53;;;7.80;91.20;;;;;;4987212;28;20442;-71
2022/09/23 05:16:17;;;;;;;13.60;7.87;;;7.70;91.30;;;;;;5008066;28;20465;-71
2022/09/23 05:18:44;;;;;;;12.60;8.70;;;7.70;91.40;;;;;;5016021;28;20935;-71
2022/09/23 05:21:11;;;;;;;10.80;7.77;;;7.70;91.40;;;;;;4996364;28;20858;-69
2022/09/23 05:23:38;;;;;;;11.40;7.63;;;7.70;91.50;;;;;;5008964;28;20433;-70
2022/09/23 05:26:06;;;;;;;11.50;7.80;;;7.80;91.40;;;;;;5009811;28;20469;-69
2022/09/23 05:28:33;;;;;;;11.70;7.20;;;7.80;91.40;;;;;;5016678;28;20426;-70
2022/09/23 05:31:07;;;;;;;9.57;6.40;;;7.90;91.50;;;;;;4991918;28;20801;-70
2022/09/23 05:33:35;;;;;;;12.10;6.93;;;7.90;91.50;;;;;;5008564;28;20492;-71
2022/09/23 05:36:02;;;;;;;10.00;7.60;;;7.90;91.50;;;;;;5012634;28;20828;-70
2022/09/23 05:38:28;;;;;;;12.30;7.20;;;7.90;91.60;;;;;;5012851;28;20430;-71
2022/09/23 05:40:57;;;;;;;11.90;8.27;;;7.90;91.70;;;;;;5012069;28;20761;-70
2022/09/23 05:43:23;;;;;;;11.23;7.30;;;7.80;91.50;;;;;;5011092;28;20465;-70
2022/09/23 05:45:49;;;;;;;10.53;6.77;;;7.90;91.70;;;;;;5005786;28;20477;-72
2022/09/23 05:48:15;;;;;;;9.80;6.67;;;8.00;91.60;;;;;;5002557;28;20971;-71
2022/09/23 05:50:51;;;;;;;12.47;6.77;;;8.10;91.40;;;;;;5010003;28;20424;-71
2022/09/23 05:53:18;;;;;;;13.30;7.30;;;8.10;91.40;;;;;;5005552;28;20503;-70
2022/09/23 05:55:44;;;;;;;12.70;8.27;;;8.20;91.20;;;;;;5009584;28;21010;-70
2022/09/23 05:58:10;;;;;;;11.40;7.63;;;8.10;91.20;;;;;;5008688;28;20433;-71
2022/09/23 06:00:39;;;;;;;10.50;7.90;;;8.20;91.00;;;;;;5009152;28;20504;-70
2022/09/23 06:03:05;;;;;;;13.00;7.80;;;8.30;90.90;;;;;;5000074;28;20472;-70
2022/09/23 06:05:31;;;;;;;11.70;8.00;;;8.30;90.80;;;;;;5009112;28;20524;-70
2022/09/23 06:07:57;;;;;;;11.23;8.07;;;8.30;90.90;;;;;;5003564;28;20994;-70
2022/09/23 06:10:22;;;;;;;14.40;8.40;;;8.40;90.70;;;;;;5004890;28;20190;-70
2022/09/23 06:12:48;;;;;;;14.07;7.90;;;8.40;90.40;;;;;;5004900;28;20881;-72
2022/09/23 06:15:14;;;;;;;11.57;7.83;;;8.40;90.10;;;;;;5007367;28;20266;-69
2022/09/23 06:17:40;;;;;;;14.07;8.50;;;8.40;90.00;;;;;;5005507;28;20536;-70
2022/09/23 06:20:06;;;;;;;11.07;7.40;;;8.40;89.70;;;;;;5010332;28;20463;-70
2022/09/23 06:22:31;;;;;;;11.33;7.70;;;8.50;89.50;;;;;;5004993;28;20182;-70
2022/09/23 06:24:57;;;;;;;10.73;7.03;;;8.60;89.20;;;;;;5001572;28;20436;-70
2022/09/23 06:27:23;;;;;;;10.07;8.17;;;8.60;89.20;;;;;;4983890;28;20863;-70
2022/09/23 06:29:51;;;;;;;11.77;7.37;;;8.60;88.90;;;;;;5009993;28;20301;-70
2022/09/23 06:32:17;;;;;;;11.90;6.80;;;8.70;88.90;;;;;;5006298;28;20292;-71
2022/09/23 06:34:44;;;;;;;11.63;7.90;;;8.80;88.10;;;;;;5002252;28;20416;-70
2022/09/23 06:37:10;;;;;;;12.70;8.70;;;8.80;87.70;;;;;;5003437;28;20988;-71
2022/09/23 06:39:36;;;;;;;14.03;8.17;;;8.80;87.70;;;;;;5008491;28;20484;-71
2022/09/23 06:42:02;;;;;;;14.20;7.57;;;8.90;88.10;;;;;;5001702;28;20516;-71
2022/09/23 06:44:27;;;;;;;12.77;7.03;;;9.10;88.30;;;;;;5005014;28;20237;-71
2022/09/23 06:46:53;;;;;;;15.50;8.60;;;9.20;88.10;;;;;;5002895;28;20221;-70
2022/09/23 06:49:21;;;;;;;12.67;8.00;;;9.30;87.60;;;;;;5006550;28;20194;-70
2022/09/23 06:51:47;;;;;;;10.87;7.50;;;9.50;87.30;;;;;;5006183;28;20326;-70
2022/09/23 06:54:12;;;;;;;10.33;6.70;;;9.60;86.80;;;;;;5000270;28;20902;-70
2022/09/23 06:56:39;;;;;;;12.90;8.10;;;9.70;86.60;;;;;;5003397;28;20711;-72
2022/09/23 06:59:05;;;;;;;12.27;8.27;;;9.70;86.20;;;;;;5008373;28;20193;-71
2022/09/23 07:01:31;;;;;;;11.23;7.37;;;9.80;86.20;;;;;;5006144;28;20425;-72
2022/09/23 07:03:56;;;;;;;12.97;7.83;;;9.90;86.00;;;;;;5005617;28;20421;-70
2022/09/23 07:06:22;;;;;;;12.23;7.73;;;10.00;85.50;;;;;;5000734;28;20214;-71
2022/09/23 07:08:48;;;;;;;9.93;6.90;;;10.10;85.00;;;;;;5005362;28;20190;-70
2022/09/23 07:11:14;;;;;;;10.30;7.73;;;10.30;84.90;;;;;;5003947;28;20641;-72
2022/09/23 07:13:41;;;;;;;10.20;7.20;;;10.40;84.70;;;;;;5001133;28;20305;-71
2022/09/23 07:16:07;;;;;;;10.70;7.80;;;10.50;84.40;;;;;;5003445;28;20461;-71
2022/09/23 07:18:35;;;;;;;11.53;8.20;;;10.60;83.70;;;;;;5003672;28;20891;-71
2022/09/23 07:21:14;;;;;;;10.00;7.47;;;10.80;83.30;;;;;;4996441;28;20475;-71
2022/09/23 07:23:44;;;;;;;18.07;9.07;;;11.00;82.70;;;;;;5001638;28;20953;-71
2022/09/23 07:26:11;;;;;;;13.13;8.50;;;11.00;81.50;;;;;;4994297;28;20964;-71
2022/09/23 07:28:37;;;;;;;11.93;8.03;;;11.10;81.40;;;;;;5004200;28;20465;-70
2022/09/23 07:31:09;;;;;;;15.93;9.37;;;11.30;80.60;;;;;;4994591;28;20472;-70
2022/09/23 07:33:37;;;;;;;17.63;9.20;;;11.50;80.20;;;;;;5004514;28;20472;-71
2022/09/23 07:36:08;;;;;;;16.80;8.77;;;11.60;80.00;;;;;;4993162;28;20461;-70
2022/09/23 07:38:35;;;;;;;15.93;9.17;;;11.80;79.60;;;;;;5009310;28;20523;-70
2022/09/23 07:41:07;;;;;;;14.70;8.53;;;11.90;78.60;;;;;;5007375;28;20425;-72
2022/09/23 07:43:33;;;;;;;14.83;9.80;;;12.00;77.80;;;;;;5005388;28;20463;-71
2022/09/23 07:46:07;;;;;;;22.33;9.10;;;12.00;77.70;;;;;;5000136;28;20573;-72
2022/09/23 07:48:33;;;;;;;17.13;8.80;;;11.70;77.30;;;;;;5003416;28;20472;-70
2022/09/23 07:50:59;;;;;;;20.00;9.13;;;11.70;77.70;;;;;;5005291;28;20457;-71
2022/09/23 07:53:25;;;;;;;14.03;9.77;;;11.90;77.10;;;;;;5002675;28;20968;-71
2022/09/23 07:55:53;;;;;;;17.93;9.40;;;12.10;77.00;;;;;;4997218;28;20460;-70
2022/09/23 07:58:19;;;;;;;16.17;9.07;;;12.10;76.10;;;;;;5004494;28;20433;-70
2022/09/23 08:00:44;;;;;;;11.43;7.40;;;12.20;75.80;;;;;;5006071;28;20785;-70
2022/09/23 08:03:10;;;;;;;12.87;7.70;;;12.40;75.10;;;;;;5002660;28;20203;-71
2022/09/23 08:05:35;;;;;;;15.50;8.30;;;12.70;73.70;;;;;;4997462;28;20217;-72
2022/09/23 08:08:01;;;;;;;12.30;7.87;;;12.70;72.90;;;;;;4994558;28;20185;-70
2022/09/23 08:10:27;;;;;;;13.10;7.47;;;12.70;73.00;;;;;;5006392;28;20572;-71
2022/09/23 08:12:52;;;;;;;14.53;8.20;;;12.80;73.20;;;;;;4981843;28;20218;-70
2022/09/23 08:15:18;;;;;;;15.33;7.67;;;13.00;73.50;;;;;;5004390;28;20765;-71
2022/09/23 08:17:43;;;;;;;14.23;8.40;;;13.20;73.00;;;;;;5004132;28;20186;-70
2022/09/23 08:20:43;;;;;;;12.33;7.40;;;13.50;71.80;;;;;;5008603;28;20202;-72
2022/09/23 08:22:55;;;;;;;13.50;6.73;;;13.70;71.40;;;;;;4999867;28;20186;-71
2022/09/23 08:25:22;;;;;;;12.50;7.17;;;13.70;71.70;;;;;;5010057;28;20429;-71
2022/09/23 08:27:48;;;;;;;13.57;7.50;;;13.90;71.70;;;;;;5014195;28;20197;-71
2022/09/23 08:30:13;;;;;;;17.40;8.20;;;14.00;71.30;;;;;;5015860;28;20884;-71
2022/09/23 08:32:39;;;;;;;13.33;6.90;;;14.10;70.80;;;;;;5019641;28;20468;-71
2022/09/23 08:35:05;;;;;;;12.03;7.20;;;14.20;71.00;;;;;;5009432;28;20196;-71
2022/09/23 08:37:30;;;;;;;8.73;6.00;;;14.20;69.90;;;;;;5004939;28;20202;-70
2022/09/23 08:39:56;;;;;;;7.27;5.30;;;14.10;70.40;;;;;;5007767;28;20548;-71
2022/09/23 08:42:31;;;;;;;9.40;5.43;;;14.30;69.90;;;;;;5001572;28;20190;-70
2022/09/23 08:44:59;;;;;;;9.00;5.30;;;14.40;69.80;;;;;;5002350;28;20197;-71
2022/09/23 08:47:44;;;;;;;9.50;5.07;;;14.60;69.10;;;;;;5006854;28;20452;-71
2022/09/23 08:50:22;;;;;;;8.23;5.37;;;14.70;68.90;;;;;;4998144;28;20449;-71
2022/09/23 08:52:57;;;;;;;10.73;6.00;;;14.60;68.90;;;;;;5005171;28;20931;-71
2022/09/23 08:55:53;;;;;;;9.40;6.07;;;14.70;69.10;;;;;;5002462;28;20420;-71
2022/09/23 08:58:40;;;;;;;9.90;5.03;;;14.90;68.60;;;;;;5005405;28;20810;-71
2022/09/23 09:01:30;;;;;;;8.10;4.83;;;15.00;67.90;;;;;;5003421;28;20928;-71
2022/09/23 09:03:59;;;;;;;8.17;4.77;;;15.20;67.50;;;;;;4986181;28;20431;-70
2022/09/23 09:06:36;;;;;;;7.47;4.70;;;15.20;67.60;;;;;;4996581;28;20857;-71
2022/09/23 09:09:03;;;;;;;8.77;4.67;;;15.20;67.70;;;;;;5010843;28;20424;-72
2022/09/23 09:11:36;;;;;;;9.87;4.90;;;15.30;67.50;;;;;;5002402;28;20449;-70
2022/09/23 09:14:16;;;;;;;10.27;5.57;;;15.30;67.60;;;;;;5011494;28;20414;-70
2022/09/23 09:16:47;;;;;;;11.70;5.60;;;15.40;67.50;;;;;;5006711;28;20925;-70
2022/09/23 09:19:21;;;;;;;10.57;5.47;;;15.30;68.00;;;;;;5001123;28;20433;-71
2022/09/23 09:21:52;;;;;;;9.10;5.17;;;15.20;68.60;;;;;;4994037;28;20851;-70
2022/09/23 09:24:26;;;;;;;7.20;5.10;;;15.20;68.80;;;;;;5000988;28;20773;-71
2022/09/23 09:26:52;;;;;;;8.30;4.57;;;15.20;69.10;;;;;;5006345;28;20838;-71
2022/09/23 09:29:30;;;;;;;6.17;4.80;;;15.20;68.80;;;;;;5007998;28;20457;-70
2022/09/23 09:31:57;;;;;;;9.57;4.57;;;15.20;69.10;;;;;;5005415;28;21044;-71
2022/09/23 09:34:40;;;;;;;10.40;5.10;;;15.20;69.20;;;;;;5006297;28;20452;-71
2022/09/23 09:37:19;;;;;;;7.90;4.47;;;15.30;69.10;;;;;;5002100;28;20457;-71
2022/09/23 09:39:45;;;;;;;8.00;4.90;;;15.40;69.40;;;;;;5002011;28;20412;-71
2022/09/23 09:42:19;;;;;;;6.83;4.30;;;15.50;69.20;;;;;;5008053;28;20422;-69
2022/09/23 09:45:03;;;;;;;7.73;5.07;;;15.70;68.20;;;;;;5004740;28;20189;-70
2022/09/23 09:47:37;;;;;;;7.30;5.00;;;15.80;67.70;;;;;;5007287;28;20830;-69
2022/09/23 09:50:07;;;;;;;11.57;5.10;;;15.60;67.30;;;;;;5010839;28;20462;-71
2022/09/23 09:52:34;;;;;;;8.10;4.63;;;15.70;67.90;;;;;;5004206;28;20539;-71
2022/09/23 09:55:11;;;;;;;5.83;4.90;;;16.00;66.60;;;;;;5005835;28;20566;-69
2022/09/23 09:57:53;;;;;;;7.17;4.23;;;16.00;65.80;;;;;;5009474;28;20574;-69
2022/09/23 10:00:25;;;;;;;8.70;5.60;;;16.00;65.60;;;;;;5001962;28;20804;-71
2022/09/23 10:03:13;;;;;;;7.90;4.60;;;16.00;65.60;;;;;;5001870;28;20474;-69
2022/09/23 10:05:45;;;;;;;6.30;4.90;;;15.90;66.70;;;;;;5004364;28;20496;-70
2022/09/23 10:08:47;;;;;;;7.27;4.80;;;15.90;66.40;;;;;;5003046;28;20418;-71
2022/09/23 10:11:15;;;;;;;11.90;5.90;;;16.20;66.00;;;;;;4970208;28;20420;-72
2022/09/23 10:13:59;;;;;;;11.80;6.20;;;16.10;66.10;;;;;;5003378;28;20472;-71
2022/09/23 10:16:26;;;;;;;10.57;6.33;;;16.10;66.90;;;;;;5003608;28;20471;-70
2022/09/23 10:18:55;;;;;;;8.27;5.37;;;16.00;67.20;;;;;;5002480;28;20433;-70
2022/09/23 10:21:23;;;;;;;7.03;5.00;;;16.10;67.30;;;;;;5004344;28;20447;-70
2022/09/23 10:23:57;;;;;;;7.87;5.47;;;16.10;66.30;;;;;;5010543;28;20425;-71
2022/09/23 10:26:31;;;;;;;7.27;5.37;;;16.00;66.10;;;;;;5007695;28;20456;-70
2022/09/23 10:28:59;;;;;;;7.37;4.30;;;16.00;66.10;;;;;;5015868;28;20490;-71
2022/09/23 10:31:29;;;;;;;11.10;5.47;;;16.20;66.10;;;;;;5023628;28;20505;-71
2022/09/23 10:34:20;;;;;;;11.03;5.30;;;16.40;65.70;;;;;;5000337;28;20536;-71
2022/09/23 10:37:13;;;;;;;6.67;4.73;;;16.70;65.10;;;;;;5013727;28;20465;-70
2022/09/23 10:49:22;;;;;;;7.37;4.57;;;17.80;62.50;;;;;;5003831;28;20540;-72
2022/09/23 10:52:09;;;;;;;8.73;5.57;;;18.00;62.50;;;;;;5008712;28;20413;-70
2022/09/23 10:54:44;;;;;;;7.63;4.73;;;18.50;60.30;;;;;;5007668;28;20424;-70
2022/09/23 10:57:46;;;;;;;11.27;6.00;;;19.00;60.30;;;;;;5006535;28;20479;-71
2022/09/23 11:00:31;;;;;;;6.80;4.63;;;19.80;58.20;;;;;;5004000;28;20413;-71
2022/09/23 11:03:16;;;;;;;6.60;4.23;;;20.40;56.60;;;;;;4999966;28;20799;-72
2022/09/23 11:06:02;;;;;;;7.50;4.50;;;21.20;54.20;;;;;;5004665;28;20525;-72
2022/09/23 11:08:34;;;;;;;7.90;5.60;;;21.90;50.90;;;;;;5002866;28;20412;-70
2022/09/23 11:11:17;;;;;;;9.87;5.80;;;22.30;49.80;;;;;;5008901;28;20417;-71
2022/09/23 11:13:47;;;;;;;8.80;5.17;;;21.90;49.70;;;;;;5003595;28;21068;-72
2022/09/23 11:16:21;;;;;;;9.03;5.23;;;20.40;52.90;;;;;;4997494;28;20459;-71
2022/09/23 11:19:11;;;;;;;10.57;6.00;;;19.80;55.40;;;;;;5006758;28;20455;-71
2022/09/23 11:22:14;;;;;;;9.50;4.83;;;20.00;55.30;;;;;;5005252;28;20555;-71
2022/09/23 11:24:57;;;;;;;7.97;5.33;;;19.80;55.70;;;;;;5003545;28;20582;-70
2022/09/23 11:27:41;;;;;;;6.20;4.67;;;20.10;55.30;;;;;;5005690;28;20524;-71
2022/09/23 11:30:19;;;;;;;12.07;5.20;;;19.90;55.00;;;;;;4999563;28;20820;-71
2022/09/23 11:33:03;;;;;;;6.30;4.57;;;19.30;55.80;;;;;;5003745;28;20472;-72
2022/09/23 11:35:43;;;;;;;8.20;4.70;;;18.80;57.30;;;;;;5007601;28;20829;-71
2022/09/23 11:38:24;;;;;;;11.97;6.20;;;18.80;57.40;;;;;;5004697;28;20416;-71
2022/09/23 11:40:57;;;;;;;9.90;5.73;;;18.80;57.60;;;;;;5002180;28;20431;-72
2022/09/23 11:43:28;;;;;;;8.40;5.67;;;18.60;58.10;;;;;;4999110;28;20516;-71
2022/09/23 11:46:42;;;;;;;6.93;5.00;;;18.70;57.70;;;;;;4998923;28;21389;-71
2022/09/23 11:49:34;;;;;;;9.10;4.90;;;18.70;57.80;;;;;;4981800;28;20800;-71
2022/09/23 11:52:18;;;;;;;10.03;4.67;;;18.80;57.40;;;;;;5005224;28;20472;-70
2022/09/23 11:55:12;;;;;;;6.50;4.90;;;18.60;58.40;;;;;;5001525;28;20824;-71
2022/09/23 11:57:44;;;;;;;11.03;4.97;;;18.60;57.80;;;;;;5009182;28;20443;-71
2022/09/23 12:00:22;;;;;;;12.50;5.20;;;18.60;57.80;;;;;;5009049;28;20420;-70
2022/09/23 12:03:04;;;;;;;6.73;3.90;;;18.60;58.00;;;;;;5004804;28;20439;-69
2022/09/23 12:05:44;;;;;;;6.20;4.30;;;18.80;58.20;;;;;;5007917;28;20514;-70
2022/09/23 12:08:35;;;;;;;5.53;4.37;;;19.20;56.50;;;;;;4980963;28;20463;-71
2022/09/23 12:11:15;;;;;;;6.30;4.00;;;19.90;55.60;;;;;;4986186;28;20466;-71
2022/09/23 12:14:00;;;;;;;8.17;4.50;;;20.60;54.10;;;;;;5007158;28;20458;-71
2022/09/23 12:16:44;;;;;;;4.47;4.20;;;21.00;52.50;;;;;;5011810;28;20991;-72
2022/09/23 12:19:37;;;;;;;5.87;4.13;;;21.30;51.30;;;;;;5010932;28;20446;-71
2022/09/23 12:22:37;;;;;;;9.20;5.10;;;21.60;51.60;;;;;;5006301;28;20998;-71
2022/09/23 12:25:06;;;;;;;6.27;4.30;;;21.20;50.90;;;;;;5001596;28;20412;-71
2022/09/23 12:27:37;;;;;;;6.50;5.00;;;20.70;52.60;;;;;;5002371;28;20485;-70
2022/09/23 12:30:20;;;;;;;9.97;5.13;;;20.40;53.00;;;;;;5008122;28;20468;-71
2022/09/23 12:32:46;;;;;;;8.57;5.33;;;20.10;53.70;;;;;;5002772;28;20470;-71
2022/09/23 12:35:31;;;;;;;9.90;5.10;;;19.90;54.60;;;;;;5003951;28;20419;-71
2022/09/23 12:37:59;;;;;;;7.53;4.47;;;20.20;54.20;;;;;;4998785;28;20431;-71
2022/09/23 12:40:33;;;;;;;5.97;4.87;;;20.60;54.50;;;;;;4994527;28;20757;-70
2022/09/23 12:43:00;;;;;;;7.27;5.23;;;21.20;52.10;;;;;;5004706;28;20475;-71
2022/09/23 12:45:33;;;;;;;9.20;5.23;;;21.40;51.60;;;;;;5006647;28;20510;-72
2022/09/23 12:48:03;;;;;;;8.30;5.10;;;21.50;50.60;;;;;;5005887;28;20459;-70
2022/09/23 12:50:49;;;;;;;6.70;4.80;;;21.40;51.30;;;;;;5002191;28;20956;-71
2022/09/23 12:53:33;;;;;;;10.53;6.00;;;21.60;50.70;;;;;;5000624;28;20948;-72
2022/09/23 12:56:12;;;;;;;8.07;5.40;;;21.40;50.50;;;;;;4989713;28;20497;-70
2022/09/23 12:58:41;;;;;;;6.80;5.67;;;21.30;51.60;;;;;;5011070;28;20430;-71
2022/09/23 13:01:14;;;;;;;12.43;7.03;;;20.90;52.10;;;;;;5006976;28;20455;-71
2022/09/23 13:06:56;;;;;;;10.00;7.77;;;19.90;54.40;;;;;;5003991;28;20830;-70
2022/09/23 13:09:31;;;;;;;11.83;7.00;;;19.70;54.80;;;;;;5000837;28;20428;-71
2022/09/23 13:12:05;;;;;;;12.80;7.20;;;20.20;54.10;;;;;;5009799;28;20435;-70
2022/09/23 13:14:32;;;;;;;14.93;7.30;;;19.90;54.80;;;;;;5000953;28;20421;-71
2022/09/23 13:16:58;;;;;;;12.53;6.20;;;19.70;55.30;;;;;;5006889;28;20491;-69
2022/09/23 13:19:26;;;;;;;9.30;6.43;;;19.90;55.00;;;;;;5011057;28;20413;-71
2022/09/23 13:21:52;;;;;;;12.23;6.50;;;19.60;55.30;;;;;;5005244;28;20506;-68
2022/09/23 13:24:27;;;;;;;10.33;6.27;;;19.60;56.00;;;;;;5004329;28;20511;-70
2022/09/23 13:27:12;;;;;;;8.93;6.43;;;20.20;55.00;;;;;;4999231;28;20228;-70
2022/09/23 13:29:43;;;;;;;10.63;6.90;;;20.50;53.40;;;;;;5008405;28;20424;-70